sensor_id;sensor_type;location;lat;lon;timestamp;P1;durP1;ratioP1;P2;durP2;ratioP2
1404;SDS011;697;51.114;6.542;2023-03-03T00:00:41;46.50;;;29.77;;
1404;SDS011;697;51.114;6.542;2023-03-03T00:03:08;47.73;;;29.60;;
1404;SDS011;697;51.114;6.542;2023-03-03T00:05:37;44.53;;;29.43;;
1404;SDS011;697;51.114;6.542;2023-03-03T00:08:04;45.77;;;28.03;;
1404;SDS011;697;51.114;6.542;2023-03-03T00:10:30;45.60;;;29.30;;
1404;SDS011;697;51.114;6.542;2023-03-03T00:12:57;51.10;;;30.20;;
1404;SDS011;697;51.114;6.542;2023-03-03T00:15:25;52.40;;;30.53;;
1404;SDS011;697;51.114;6.542;2023-03-03T00:17:53;49.00;;;31.03;;
1404;SDS011;697;51.114;6.542;2023-03-03T00:23:16;47.53;;;29.87;;
1404;SDS011;697;51.114;6.542;2023-03-03T00:25:49;46.47;;;30.27;;
1404;SDS011;697;51.114;6.542;2023-03-03T00:28:24;51.57;;;31.90;;
1404;SDS011;697;51.114;6.542;2023-03-03T00:30:53;52.20;;;31.87;;
1404;SDS011;697;51.114;6.542;2023-03-03T00:33:25;49.00;;;29.30;;
1404;SDS011;697;51.114;6.542;2023-03-03T00:35:56;53.73;;;31.17;;
1404;SDS011;697;51.114;6.542;2023-03-03T00:38:31;48.03;;;30.27;;
1404;SDS011;697;51.114;6.542;2023-03-03T00:41:00;56.93;;;32.57;;
1404;SDS011;697;51.114;6.542;2023-03-03T00:43:32;50.60;;;29.90;;
1404;SDS011;697;51.114;6.542;2023-03-03T00:46:01;53.40;;;31.47;;
1404;SDS011;697;51.114;6.542;2023-03-03T00:48:30;59.60;;;35.73;;
1404;SDS011;697;51.114;6.542;2023-03-03T00:51:09;55.50;;;31.40;;
1404;SDS011;697;51.114;6.542;2023-03-03T00:53:45;58.43;;;31.97;;
1404;SDS011;697;51.114;6.542;2023-03-03T00:56:12;63.40;;;34.43;;
1404;SDS011;697;51.114;6.542;2023-03-03T00:58:39;57.63;;;34.47;;
1404;SDS011;697;51.114;6.542;2023-03-03T01:01:08;64.67;;;32.93;;
1404;SDS011;697;51.114;6.542;2023-03-03T01:03:36;67.47;;;36.60;;
1404;SDS011;697;51.114;6.542;2023-03-03T01:06:03;58.80;;;33.30;;
1404;SDS011;697;51.114;6.542;2023-03-03T01:08:30;60.37;;;32.20;;
1404;SDS011;697;51.114;6.542;2023-03-03T01:10:57;60.43;;;33.60;;
1404;SDS011;697;51.114;6.542;2023-03-03T01:13:30;62.43;;;34.27;;
1404;SDS011;697;51.114;6.542;2023-03-03T01:15:59;62.03;;;32.60;;
1404;SDS011;697;51.114;6.542;2023-03-03T01:18:27;62.37;;;35.00;;
1404;SDS011;697;51.114;6.542;2023-03-03T01:20:55;70.10;;;35.70;;
1404;SDS011;697;51.114;6.542;2023-03-03T01:23:22;65.23;;;32.30;;
1404;SDS011;697;51.114;6.542;2023-03-03T01:25:49;71.47;;;35.10;;
1404;SDS011;697;51.114;6.542;2023-03-03T01:28:15;58.97;;;33.20;;
1404;SDS011;697;51.114;6.542;2023-03-03T01:30:42;61.10;;;35.20;;
1404;SDS011;697;51.114;6.542;2023-03-03T01:33:09;59.10;;;33.30;;
1404;SDS011;697;51.114;6.542;2023-03-03T01:35:36;67.00;;;34.67;;
1404;SDS011;697;51.114;6.542;2023-03-03T01:38:06;69.97;;;34.10;;
1404;SDS011;697;51.114;6.542;2023-03-03T01:40:33;64.37;;;32.83;;
1404;SDS011;697;51.114;6.542;2023-03-03T01:42:59;66.10;;;35.40;;
1404;SDS011;697;51.114;6.542;2023-03-03T01:45:27;64.50;;;33.30;;
1404;SDS011;697;51.114;6.542;2023-03-03T01:47:55;61.03;;;34.00;;
1404;SDS011;697;51.114;6.542;2023-03-03T01:50:28;64.40;;;32.37;;
1404;SDS011;697;51.114;6.542;2023-03-03T01:53:04;71.00;;;34.20;;
1404;SDS011;697;51.114;6.542;2023-03-03T01:55:38;75.23;;;36.97;;
1404;SDS011;697;51.114;6.542;2023-03-03T01:58:08;64.03;;;34.43;;
1404;SDS011;697;51.114;6.542;2023-03-03T02:00:37;67.97;;;35.87;;
1404;SDS011;697;51.114;6.542;2023-03-03T02:03:05;65.07;;;33.43;;
1404;SDS011;697;51.114;6.542;2023-03-03T02:05:32;65.30;;;35.23;;
1404;SDS011;697;51.114;6.542;2023-03-03T02:08:00;63.10;;;34.20;;
1404;SDS011;697;51.114;6.542;2023-03-03T02:10:29;76.63;;;37.37;;
1404;SDS011;697;51.114;6.542;2023-03-03T02:12:56;62.50;;;32.07;;
1404;SDS011;697;51.114;6.542;2023-03-03T02:15:25;60.17;;;33.43;;
1404;SDS011;697;51.114;6.542;2023-03-03T02:17:56;70.90;;;32.77;;
1404;SDS011;697;51.114;6.542;2023-03-03T02:20:31;66.93;;;34.50;;
1404;SDS011;697;51.114;6.542;2023-03-03T02:23:07;74.97;;;37.23;;
1404;SDS011;697;51.114;6.542;2023-03-03T02:25:41;79.30;;;37.80;;
1404;SDS011;697;51.114;6.542;2023-03-03T02:28:16;77.10;;;37.40;;
1404;SDS011;697;51.114;6.542;2023-03-03T02:30:43;62.37;;;34.90;;
1404;SDS011;697;51.114;6.542;2023-03-03T02:33:10;63.33;;;32.73;;
1404;SDS011;697;51.114;6.542;2023-03-03T02:35:37;66.87;;;32.60;;
1404;SDS011;697;51.114;6.542;2023-03-03T02:38:08;57.67;;;30.83;;
1404;SDS011;697;51.114;6.542;2023-03-03T02:40:41;62.27;;;32.70;;
1404;SDS011;697;51.114;6.542;2023-03-03T02:43:12;63.80;;;32.37;;
1404;SDS011;697;51.114;6.542;2023-03-03T02:45:44;60.23;;;30.93;;
1404;SDS011;697;51.114;6.542;2023-03-03T02:48:10;63.00;;;33.20;;
1404;SDS011;697;51.114;6.542;2023-03-03T02:50:37;59.53;;;32.97;;
1404;SDS011;697;51.114;6.542;2023-03-03T02:53:04;67.77;;;33.53;;
1404;SDS011;697;51.114;6.542;2023-03-03T02:55:30;62.90;;;31.77;;
1404;SDS011;697;51.114;6.542;2023-03-03T02:57:57;64.70;;;35.00;;
1404;SDS011;697;51.114;6.542;2023-03-03T03:00:25;69.40;;;32.53;;
1404;SDS011;697;51.114;6.542;2023-03-03T03:02:52;73.00;;;34.37;;
1404;SDS011;697;51.114;6.542;2023-03-03T03:05:19;61.03;;;31.23;;
1404;SDS011;697;51.114;6.542;2023-03-03T03:07:45;74.37;;;35.27;;
1404;SDS011;697;51.114;6.542;2023-03-03T03:10:12;70.30;;;35.40;;
1404;SDS011;697;51.114;6.542;2023-03-03T03:12:39;72.63;;;34.70;;
1404;SDS011;697;51.114;6.542;2023-03-03T03:15:06;69.57;;;33.90;;
1404;SDS011;697;51.114;6.542;2023-03-03T03:17:36;75.93;;;36.80;;
1404;SDS011;697;51.114;6.542;2023-03-03T03:20:03;56.50;;;32.80;;
1404;SDS011;697;51.114;6.542;2023-03-03T03:22:30;72.13;;;34.73;;
1404;SDS011;697;51.114;6.542;2023-03-03T03:24:57;61.40;;;32.97;;
1404;SDS011;697;51.114;6.542;2023-03-03T03:27:24;64.83;;;33.60;;
1404;SDS011;697;51.114;6.542;2023-03-03T03:29:50;56.70;;;29.83;;
1404;SDS011;697;51.114;6.542;2023-03-03T03:32:17;64.20;;;32.13;;
1404;SDS011;697;51.114;6.542;2023-03-03T03:34:45;56.07;;;29.77;;
1404;SDS011;697;51.114;6.542;2023-03-03T03:37:12;59.27;;;31.90;;
1404;SDS011;697;51.114;6.542;2023-03-03T03:39:39;64.43;;;31.17;;
1404;SDS011;697;51.114;6.542;2023-03-03T03:42:06;58.70;;;30.70;;
1404;SDS011;697;51.114;6.542;2023-03-03T03:44:33;58.73;;;30.60;;
1404;SDS011;697;51.114;6.542;2023-03-03T03:47:00;61.03;;;33.00;;
1404;SDS011;697;51.114;6.542;2023-03-03T03:49:27;56.60;;;31.77;;
1404;SDS011;697;51.114;6.542;2023-03-03T03:51:55;54.13;;;30.00;;
1404;SDS011;697;51.114;6.542;2023-03-03T03:54:21;58.27;;;30.00;;
1404;SDS011;697;51.114;6.542;2023-03-03T03:56:48;57.53;;;30.60;;
1404;SDS011;697;51.114;6.542;2023-03-03T03:59:15;64.23;;;31.37;;
1404;SDS011;697;51.114;6.542;2023-03-03T04:01:41;58.63;;;30.57;;
1404;SDS011;697;51.114;6.542;2023-03-03T04:04:08;60.60;;;30.50;;
1404;SDS011;697;51.114;6.542;2023-03-03T04:06:35;52.90;;;29.53;;
1404;SDS011;697;51.114;6.542;2023-03-03T04:09:03;49.93;;;27.07;;
1404;SDS011;697;51.114;6.542;2023-03-03T04:11:29;61.13;;;31.50;;
1404;SDS011;697;51.114;6.542;2023-03-03T04:13:56;53.43;;;29.00;;
1404;SDS011;697;51.114;6.542;2023-03-03T04:16:23;57.27;;;28.40;;
1404;SDS011;697;51.114;6.542;2023-03-03T04:18:50;55.50;;;30.47;;
1404;SDS011;697;51.114;6.542;2023-03-03T04:21:16;55.33;;;28.00;;
1404;SDS011;697;51.114;6.542;2023-03-03T04:23:43;55.57;;;28.93;;
1404;SDS011;697;51.114;6.542;2023-03-03T04:26:11;56.50;;;29.57;;
1404;SDS011;697;51.114;6.542;2023-03-03T04:28:38;55.50;;;29.27;;
1404;SDS011;697;51.114;6.542;2023-03-03T04:31:05;54.03;;;28.13;;
1404;SDS011;697;51.114;6.542;2023-03-03T04:33:31;53.10;;;29.90;;
1404;SDS011;697;51.114;6.542;2023-03-03T04:35:58;63.13;;;32.57;;
1404;SDS011;697;51.114;6.542;2023-03-03T04:38:25;54.63;;;29.70;;
1404;SDS011;697;51.114;6.542;2023-03-03T04:40:52;60.00;;;30.93;;
1404;SDS011;697;51.114;6.542;2023-03-03T04:43:20;56.17;;;30.93;;
1404;SDS011;697;51.114;6.542;2023-03-03T04:45:47;59.90;;;30.30;;
1404;SDS011;697;51.114;6.542;2023-03-03T04:48:13;55.90;;;30.50;;
1404;SDS011;697;51.114;6.542;2023-03-03T04:50:40;58.00;;;31.23;;
1404;SDS011;697;51.114;6.542;2023-03-03T04:53:07;53.20;;;28.87;;
1404;SDS011;697;51.114;6.542;2023-03-03T04:55:34;54.03;;;30.00;;
1404;SDS011;697;51.114;6.542;2023-03-03T04:58:02;55.77;;;29.83;;
1404;SDS011;697;51.114;6.542;2023-03-03T05:00:30;52.77;;;29.03;;
1404;SDS011;697;51.114;6.542;2023-03-03T05:02:57;51.57;;;28.83;;
1404;SDS011;697;51.114;6.542;2023-03-03T05:05:24;51.97;;;28.87;;
1404;SDS011;697;51.114;6.542;2023-03-03T05:07:51;55.87;;;31.40;;
1404;SDS011;697;51.114;6.542;2023-03-03T05:10:17;56.83;;;31.60;;
1404;SDS011;697;51.114;6.542;2023-03-03T05:12:45;51.07;;;30.27;;
1404;SDS011;697;51.114;6.542;2023-03-03T05:15:11;51.60;;;27.67;;
1404;SDS011;697;51.114;6.542;2023-03-03T05:17:39;52.50;;;27.90;;
1404;SDS011;697;51.114;6.542;2023-03-03T05:20:07;60.90;;;31.60;;
1404;SDS011;697;51.114;6.542;2023-03-03T05:22:34;53.83;;;29.90;;
1404;SDS011;697;51.114;6.542;2023-03-03T05:25:01;56.60;;;29.27;;
1404;SDS011;697;51.114;6.542;2023-03-03T05:27:28;54.53;;;31.60;;
1404;SDS011;697;51.114;6.542;2023-03-03T05:29:55;51.83;;;29.03;;
1404;SDS011;697;51.114;6.542;2023-03-03T05:32:22;48.97;;;27.93;;
1404;SDS011;697;51.114;6.542;2023-03-03T05:34:50;55.57;;;29.73;;
1404;SDS011;697;51.114;6.542;2023-03-03T05:37:17;53.77;;;30.20;;
1404;SDS011;697;51.114;6.542;2023-03-03T05:39:43;52.87;;;27.57;;
1404;SDS011;697;51.114;6.542;2023-03-03T05:42:12;53.60;;;28.80;;
1404;SDS011;697;51.114;6.542;2023-03-03T05:44:39;58.57;;;31.13;;
1404;SDS011;697;51.114;6.542;2023-03-03T05:47:06;53.67;;;28.93;;
1404;SDS011;697;51.114;6.542;2023-03-03T05:49:33;53.03;;;30.10;;
1404;SDS011;697;51.114;6.542;2023-03-03T05:52:02;53.43;;;28.90;;
1404;SDS011;697;51.114;6.542;2023-03-03T05:54:28;49.50;;;27.53;;
1404;SDS011;697;51.114;6.542;2023-03-03T05:56:56;55.73;;;30.17;;
1404;SDS011;697;51.114;6.542;2023-03-03T05:59:23;51.20;;;27.83;;
1404;SDS011;697;51.114;6.542;2023-03-03T06:01:50;54.50;;;29.83;;
1404;SDS011;697;51.114;6.542;2023-03-03T06:04:16;54.77;;;27.30;;
1404;SDS011;697;51.114;6.542;2023-03-03T06:06:43;54.47;;;29.27;;
1404;SDS011;697;51.114;6.542;2023-03-03T06:09:11;48.60;;;29.40;;
1404;SDS011;697;51.114;6.542;2023-03-03T06:11:38;54.67;;;28.60;;
1404;SDS011;697;51.114;6.542;2023-03-03T06:14:04;47.23;;;27.63;;
1404;SDS011;697;51.114;6.542;2023-03-03T06:16:31;48.03;;;26.63;;
1404;SDS011;697;51.114;6.542;2023-03-03T06:18:58;47.67;;;27.83;;
1404;SDS011;697;51.114;6.542;2023-03-03T06:21:25;43.53;;;24.60;;
1404;SDS011;697;51.114;6.542;2023-03-03T06:23:52;48.07;;;26.50;;
1404;SDS011;697;51.114;6.542;2023-03-03T06:26:20;150.90;;;33.87;;
1404;SDS011;697;51.114;6.542;2023-03-03T06:28:47;44.67;;;25.13;;
1404;SDS011;697;51.114;6.542;2023-03-03T06:31:14;46.67;;;23.90;;
1404;SDS011;697;51.114;6.542;2023-03-03T06:33:41;51.00;;;26.40;;
1404;SDS011;697;51.114;6.542;2023-03-03T06:36:07;49.37;;;25.57;;
1404;SDS011;697;51.114;6.542;2023-03-03T06:38:35;55.13;;;27.00;;
1404;SDS011;697;51.114;6.542;2023-03-03T06:41:01;43.87;;;24.70;;
1404;SDS011;697;51.114;6.542;2023-03-03T06:43:32;54.03;;;26.90;;
1404;SDS011;697;51.114;6.542;2023-03-03T06:45:59;52.20;;;25.37;;
1404;SDS011;697;51.114;6.542;2023-03-03T06:48:26;50.40;;;26.00;;
1404;SDS011;697;51.114;6.542;2023-03-03T06:50:53;54.40;;;28.87;;
1404;SDS011;697;51.114;6.542;2023-03-03T06:53:19;52.70;;;27.47;;
1404;SDS011;697;51.114;6.542;2023-03-03T06:55:46;45.93;;;25.30;;
1404;SDS011;697;51.114;6.542;2023-03-03T06:58:14;44.53;;;24.83;;
1404;SDS011;697;51.114;6.542;2023-03-03T07:00:44;50.63;;;25.00;;
1404;SDS011;697;51.114;6.542;2023-03-03T07:03:15;49.30;;;25.17;;
1404;SDS011;697;51.114;6.542;2023-03-03T07:05:43;47.20;;;24.23;;
1404;SDS011;697;51.114;6.542;2023-03-03T07:08:12;42.77;;;25.00;;
1404;SDS011;697;51.114;6.542;2023-03-03T07:10:41;49.50;;;26.30;;
1404;SDS011;697;51.114;6.542;2023-03-03T07:15:55;42.13;;;23.80;;
1404;SDS011;697;51.114;6.542;2023-03-03T07:18:27;45.00;;;25.83;;
1404;SDS011;697;51.114;6.542;2023-03-03T07:21:07;46.60;;;24.83;;
1404;SDS011;697;51.114;6.542;2023-03-03T07:23:41;42.77;;;24.13;;
1404;SDS011;697;51.114;6.542;2023-03-03T07:26:11;44.57;;;24.67;;
1404;SDS011;697;51.114;6.542;2023-03-03T07:28:42;38.90;;;22.20;;
1404;SDS011;697;51.114;6.542;2023-03-03T07:31:19;41.87;;;22.07;;
1404;SDS011;697;51.114;6.542;2023-03-03T07:33:53;45.17;;;24.67;;
1404;SDS011;697;51.114;6.542;2023-03-03T07:36:22;39.17;;;22.60;;
1404;SDS011;697;51.114;6.542;2023-03-03T07:38:56;38.50;;;22.17;;
1404;SDS011;697;51.114;6.542;2023-03-03T07:41:25;34.90;;;20.27;;
1404;SDS011;697;51.114;6.542;2023-03-03T07:43:53;42.33;;;22.87;;
1404;SDS011;697;51.114;6.542;2023-03-03T07:46:26;35.03;;;19.73;;
1404;SDS011;697;51.114;6.542;2023-03-03T07:48:56;38.17;;;22.07;;
1404;SDS011;697;51.114;6.542;2023-03-03T07:51:24;35.57;;;20.30;;
1404;SDS011;697;51.114;6.542;2023-03-03T07:53:53;35.63;;;18.67;;
1404;SDS011;697;51.114;6.542;2023-03-03T07:56:27;31.20;;;18.23;;
1404;SDS011;697;51.114;6.542;2023-03-03T07:58:55;35.47;;;19.93;;
1404;SDS011;697;51.114;6.542;2023-03-03T08:01:27;36.77;;;20.03;;
1404;SDS011;697;51.114;6.542;2023-03-03T08:04:04;32.10;;;18.83;;
1404;SDS011;697;51.114;6.542;2023-03-03T08:06:41;37.63;;;20.53;;
1404;SDS011;697;51.114;6.542;2023-03-03T08:09:26;39.37;;;20.47;;
1404;SDS011;697;51.114;6.542;2023-03-03T08:11:56;38.07;;;19.57;;
1404;SDS011;697;51.114;6.542;2023-03-03T08:14:28;36.47;;;19.40;;
1404;SDS011;697;51.114;6.542;2023-03-03T08:16:57;38.30;;;21.43;;
1404;SDS011;697;51.114;6.542;2023-03-03T08:19:24;37.57;;;20.10;;
1404;SDS011;697;51.114;6.542;2023-03-03T08:21:51;38.37;;;20.30;;
1404;SDS011;697;51.114;6.542;2023-03-03T08:24:23;38.90;;;21.33;;
1404;SDS011;697;51.114;6.542;2023-03-03T08:26:51;44.40;;;23.40;;
1404;SDS011;697;51.114;6.542;2023-03-03T08:29:18;38.80;;;22.40;;
1404;SDS011;697;51.114;6.542;2023-03-03T08:31:44;34.30;;;19.83;;
1404;SDS011;697;51.114;6.542;2023-03-03T08:34:13;46.20;;;23.10;;
1404;SDS011;697;51.114;6.542;2023-03-03T08:36:40;40.67;;;21.87;;
1404;SDS011;697;51.114;6.542;2023-03-03T08:39:06;42.27;;;21.27;;
1404;SDS011;697;51.114;6.542;2023-03-03T08:41:34;42.20;;;23.60;;
1404;SDS011;697;51.114;6.542;2023-03-03T08:44:01;43.80;;;23.10;;
1404;SDS011;697;51.114;6.542;2023-03-03T08:46:27;38.17;;;22.23;;
1404;SDS011;697;51.114;6.542;2023-03-03T08:48:54;45.50;;;23.77;;
1404;SDS011;697;51.114;6.542;2023-03-03T08:51:22;44.47;;;23.77;;
1404;SDS011;697;51.114;6.542;2023-03-03T08:53:50;44.70;;;22.93;;
1404;SDS011;697;51.114;6.542;2023-03-03T08:56:17;43.47;;;24.57;;
1404;SDS011;697;51.114;6.542;2023-03-03T08:58:43;40.33;;;23.33;;
1404;SDS011;697;51.114;6.542;2023-03-03T09:01:12;41.37;;;23.07;;
1404;SDS011;697;51.114;6.542;2023-03-03T09:03:40;41.07;;;24.27;;
1404;SDS011;697;51.114;6.542;2023-03-03T09:06:06;44.97;;;24.93;;
1404;SDS011;697;51.114;6.542;2023-03-03T09:08:34;54.43;;;28.03;;
1404;SDS011;697;51.114;6.542;2023-03-03T09:11:01;57.77;;;29.17;;
1404;SDS011;697;51.114;6.542;2023-03-03T09:13:28;45.33;;;25.67;;
1404;SDS011;697;51.114;6.542;2023-03-03T09:15:56;48.27;;;23.80;;
1404;SDS011;697;51.114;6.542;2023-03-03T09:18:24;51.33;;;28.30;;
1404;SDS011;697;51.114;6.542;2023-03-03T09:20:56;53.37;;;28.47;;
1404;SDS011;697;51.114;6.542;2023-03-03T09:23:31;59.97;;;29.23;;
1404;SDS011;697;51.114;6.542;2023-03-03T09:29:02;63.17;;;30.93;;
1404;SDS011;697;51.114;6.542;2023-03-03T09:31:42;66.90;;;29.57;;
1404;SDS011;697;51.114;6.542;2023-03-03T09:34:15;60.27;;;32.00;;
1404;SDS011;697;51.114;6.542;2023-03-03T09:36:46;59.53;;;30.70;;
1404;SDS011;697;51.114;6.542;2023-03-03T09:39:15;56.43;;;29.93;;
1404;SDS011;697;51.114;6.542;2023-03-03T09:42:01;63.63;;;30.53;;
1404;SDS011;697;51.114;6.542;2023-03-03T09:44:44;55.30;;;27.50;;
1404;SDS011;697;51.114;6.542;2023-03-03T09:47:26;55.83;;;29.70;;
1404;SDS011;697;51.114;6.542;2023-03-03T09:50:09;56.50;;;29.87;;
1404;SDS011;697;51.114;6.542;2023-03-03T09:52:46;54.30;;;29.80;;
1404;SDS011;697;51.114;6.542;2023-03-03T09:55:21;53.93;;;30.97;;
1404;SDS011;697;51.114;6.542;2023-03-03T09:58:04;60.07;;;31.00;;
1404;SDS011;697;51.114;6.542;2023-03-03T10:00:44;59.40;;;30.90;;
1404;SDS011;697;51.114;6.542;2023-03-03T10:03:31;57.03;;;30.67;;
1404;SDS011;697;51.114;6.542;2023-03-03T10:06:12;63.90;;;32.20;;
1404;SDS011;697;51.114;6.542;2023-03-03T10:08:50;64.00;;;32.93;;
1404;SDS011;697;51.114;6.542;2023-03-03T10:11:24;55.97;;;29.87;;
1404;SDS011;697;51.114;6.542;2023-03-03T10:14:09;57.43;;;30.17;;
1404;SDS011;697;51.114;6.542;2023-03-03T10:16:56;54.00;;;29.33;;
1404;SDS011;697;51.114;6.542;2023-03-03T10:19:35;58.10;;;31.63;;
1404;SDS011;697;51.114;6.542;2023-03-03T10:22:14;63.47;;;32.17;;
1404;SDS011;697;51.114;6.542;2023-03-03T10:24:46;57.53;;;30.93;;
1404;SDS011;697;51.114;6.542;2023-03-03T10:27:32;58.70;;;31.80;;
1404;SDS011;697;51.114;6.542;2023-03-03T10:30:12;66.57;;;33.27;;
1404;SDS011;697;51.114;6.542;2023-03-03T10:32:46;55.50;;;29.10;;
1404;SDS011;697;51.114;6.542;2023-03-03T10:35:23;56.43;;;30.43;;
1404;SDS011;697;51.114;6.542;2023-03-03T10:38:05;53.20;;;29.53;;
1404;SDS011;697;51.114;6.542;2023-03-03T10:41:10;49.90;;;28.53;;
1404;SDS011;697;51.114;6.542;2023-03-03T10:43:53;51.87;;;27.60;;
1404;SDS011;697;51.114;6.542;2023-03-03T10:46:35;54.77;;;29.40;;
1404;SDS011;697;51.114;6.542;2023-03-03T10:49:17;51.37;;;27.53;;
1404;SDS011;697;51.114;6.542;2023-03-03T10:51:59;54.27;;;28.60;;
1404;SDS011;697;51.114;6.542;2023-03-03T10:54:50;62.37;;;31.93;;
1404;SDS011;697;51.114;6.542;2023-03-03T10:57:31;60.07;;;32.60;;
1404;SDS011;697;51.114;6.542;2023-03-03T11:00:08;81.03;;;43.60;;
1404;SDS011;697;51.114;6.542;2023-03-03T11:02:47;72.97;;;39.50;;
1404;SDS011;697;51.114;6.542;2023-03-03T11:05:37;64.57;;;36.60;;
1404;SDS011;697;51.114;6.542;2023-03-03T11:08:08;66.93;;;35.27;;
1404;SDS011;697;51.114;6.542;2023-03-03T11:10:50;61.07;;;33.70;;
1404;SDS011;697;51.114;6.542;2023-03-03T11:13:25;63.30;;;35.03;;
1404;SDS011;697;51.114;6.542;2023-03-03T11:16:08;76.50;;;39.50;;
1404;SDS011;697;51.114;6.542;2023-03-03T11:18:49;83.17;;;41.57;;
1404;SDS011;697;51.114;6.542;2023-03-03T11:21:31;82.63;;;42.27;;
1404;SDS011;697;51.114;6.542;2023-03-03T11:27:10;71.30;;;38.90;;
1404;SDS011;697;51.114;6.542;2023-03-03T11:29:49;74.43;;;40.23;;
1404;SDS011;697;51.114;6.542;2023-03-03T11:32:28;79.67;;;43.17;;
1404;SDS011;697;51.114;6.542;2023-03-03T11:35:07;87.07;;;45.57;;
1404;SDS011;697;51.114;6.542;2023-03-03T11:37:45;90.80;;;45.97;;
1404;SDS011;697;51.114;6.542;2023-03-03T11:40:23;82.17;;;42.80;;
1404;SDS011;697;51.114;6.542;2023-03-03T11:42:57;82.30;;;44.67;;
1404;SDS011;697;51.114;6.542;2023-03-03T11:45:33;63.73;;;37.73;;
1404;SDS011;697;51.114;6.542;2023-03-03T11:48:05;64.30;;;36.90;;
1404;SDS011;697;51.114;6.542;2023-03-03T11:50:41;73.83;;;39.57;;
1404;SDS011;697;51.114;6.542;2023-03-03T11:53:24;75.00;;;40.70;;
1404;SDS011;697;51.114;6.542;2023-03-03T11:55:58;77.10;;;39.90;;
1404;SDS011;697;51.114;6.542;2023-03-03T11:58:33;75.70;;;39.90;;
1404;SDS011;697;51.114;6.542;2023-03-03T12:01:08;88.00;;;44.80;;
1404;SDS011;697;51.114;6.542;2023-03-03T12:03:42;78.63;;;43.53;;
1404;SDS011;697;51.114;6.542;2023-03-03T12:06:18;76.40;;;42.90;;
1404;SDS011;697;51.114;6.542;2023-03-03T12:09:00;74.67;;;40.37;;
1404;SDS011;697;51.114;6.542;2023-03-03T12:11:36;70.70;;;39.27;;
1404;SDS011;697;51.114;6.542;2023-03-03T12:14:11;76.20;;;41.07;;
1404;SDS011;697;51.114;6.542;2023-03-03T12:16:49;75.33;;;41.53;;
1404;SDS011;697;51.114;6.542;2023-03-03T12:19:29;75.17;;;39.87;;
1404;SDS011;697;51.114;6.542;2023-03-03T12:24:53;77.83;;;42.33;;
1404;SDS011;697;51.114;6.542;2023-03-03T12:27:48;72.50;;;43.50;;
1404;SDS011;697;51.114;6.542;2023-03-03T12:30:24;70.40;;;39.67;;
1404;SDS011;697;51.114;6.542;2023-03-03T12:33:04;67.70;;;38.13;;
1404;SDS011;697;51.114;6.542;2023-03-03T12:35:38;69.10;;;36.80;;
1404;SDS011;697;51.114;6.542;2023-03-03T12:38:16;66.30;;;35.93;;
1404;SDS011;697;51.114;6.542;2023-03-03T12:40:50;79.47;;;43.57;;
1404;SDS011;697;51.114;6.542;2023-03-03T12:43:29;89.77;;;46.27;;
1404;SDS011;697;51.114;6.542;2023-03-03T12:46:10;76.23;;;42.23;;
1404;SDS011;697;51.114;6.542;2023-03-03T12:48:44;66.97;;;37.73;;
1404;SDS011;697;51.114;6.542;2023-03-03T12:51:15;67.33;;;39.00;;
1404;SDS011;697;51.114;6.542;2023-03-03T12:56:44;57.03;;;31.80;;
1404;SDS011;697;51.114;6.542;2023-03-03T12:59:15;64.60;;;34.70;;
1404;SDS011;697;51.114;6.542;2023-03-03T13:01:51;64.43;;;35.60;;
1404;SDS011;697;51.114;6.542;2023-03-03T13:04:36;70.43;;;41.90;;
1404;SDS011;697;51.114;6.542;2023-03-03T13:07:09;76.93;;;41.07;;
1404;SDS011;697;51.114;6.542;2023-03-03T13:09:54;74.17;;;43.63;;
1404;SDS011;697;51.114;6.542;2023-03-03T13:12:33;78.37;;;44.70;;
1404;SDS011;697;51.114;6.542;2023-03-03T13:15:09;70.10;;;41.83;;
1404;SDS011;697;51.114;6.542;2023-03-03T13:17:48;75.93;;;41.97;;
1404;SDS011;697;51.114;6.542;2023-03-03T13:20:28;73.00;;;41.53;;
1404;SDS011;697;51.114;6.542;2023-03-03T13:23:04;77.93;;;44.70;;
1404;SDS011;697;51.114;6.542;2023-03-03T13:25:40;80.53;;;43.83;;
1404;SDS011;697;51.114;6.542;2023-03-03T13:28:17;70.30;;;41.00;;
1404;SDS011;697;51.114;6.542;2023-03-03T13:30:51;76.33;;;42.53;;
1404;SDS011;697;51.114;6.542;2023-03-03T13:33:23;81.20;;;45.27;;
1404;SDS011;697;51.114;6.542;2023-03-03T13:35:53;77.53;;;42.30;;
1404;SDS011;697;51.114;6.542;2023-03-03T13:38:23;73.40;;;40.60;;
1404;SDS011;697;51.114;6.542;2023-03-03T13:40:56;68.20;;;39.77;;
1404;SDS011;697;51.114;6.542;2023-03-03T13:43:29;75.10;;;39.00;;
1404;SDS011;697;51.114;6.542;2023-03-03T13:46:03;71.30;;;39.93;;
1404;SDS011;697;51.114;6.542;2023-03-03T13:48:36;65.63;;;37.77;;
1404;SDS011;697;51.114;6.542;2023-03-03T13:51:18;61.80;;;37.30;;
1404;SDS011;697;51.114;6.542;2023-03-03T13:53:57;68.43;;;36.70;;
1404;SDS011;697;51.114;6.542;2023-03-03T13:56:47;66.30;;;37.10;;
1404;SDS011;697;51.114;6.542;2023-03-03T13:59:30;66.57;;;36.60;;
1404;SDS011;697;51.114;6.542;2023-03-03T14:02:06;70.50;;;37.63;;
1404;SDS011;697;51.114;6.542;2023-03-03T14:04:48;63.60;;;36.07;;
1404;SDS011;697;51.114;6.542;2023-03-03T14:07:20;68.47;;;37.70;;
1404;SDS011;697;51.114;6.542;2023-03-03T14:09:51;72.70;;;38.37;;
1404;SDS011;697;51.114;6.542;2023-03-03T14:12:31;67.17;;;38.60;;
1404;SDS011;697;51.114;6.542;2023-03-03T14:15:08;71.00;;;38.90;;
1404;SDS011;697;51.114;6.542;2023-03-03T14:17:48;79.17;;;44.40;;
1404;SDS011;697;51.114;6.542;2023-03-03T14:20:30;78.20;;;43.00;;
1404;SDS011;697;51.114;6.542;2023-03-03T14:23:00;70.40;;;42.03;;
1404;SDS011;697;51.114;6.542;2023-03-03T14:25:48;67.93;;;41.30;;
1404;SDS011;697;51.114;6.542;2023-03-03T14:28:23;81.23;;;38.50;;
1404;SDS011;697;51.114;6.542;2023-03-03T14:30:53;66.30;;;39.17;;
1404;SDS011;697;51.114;6.542;2023-03-03T14:33:25;76.17;;;42.77;;
1404;SDS011;697;51.114;6.542;2023-03-03T14:36:02;71.50;;;41.90;;
1404;SDS011;697;51.114;6.542;2023-03-03T14:38:45;70.43;;;41.70;;
1404;SDS011;697;51.114;6.542;2023-03-03T14:41:14;82.13;;;46.27;;
1404;SDS011;697;51.114;6.542;2023-03-03T14:43:45;81.23;;;47.70;;
1404;SDS011;697;51.114;6.542;2023-03-03T14:46:35;82.73;;;49.90;;
1404;SDS011;697;51.114;6.542;2023-03-03T14:49:05;83.43;;;49.63;;
1404;SDS011;697;51.114;6.542;2023-03-03T14:51:40;87.13;;;53.30;;
1404;SDS011;697;51.114;6.542;2023-03-03T14:54:12;87.00;;;52.73;;
1404;SDS011;697;51.114;6.542;2023-03-03T14:59:39;82.37;;;50.70;;
1404;SDS011;697;51.114;6.542;2023-03-03T15:02:26;85.70;;;52.83;;
1404;SDS011;697;51.114;6.542;2023-03-03T15:05:16;89.63;;;56.43;;
1404;SDS011;697;51.114;6.542;2023-03-03T15:07:46;82.27;;;52.00;;
1404;SDS011;697;51.114;6.542;2023-03-03T15:10:25;71.00;;;49.37;;
1404;SDS011;697;51.114;6.542;2023-03-03T15:12:55;71.10;;;49.30;;
1404;SDS011;697;51.114;6.542;2023-03-03T15:15:23;61.80;;;44.47;;
1404;SDS011;697;51.114;6.542;2023-03-03T15:17:57;71.37;;;47.93;;
1404;SDS011;697;51.114;6.542;2023-03-03T15:20:37;74.07;;;46.90;;
1404;SDS011;697;51.114;6.542;2023-03-03T15:26:06;67.03;;;47.10;;
1404;SDS011;697;51.114;6.542;2023-03-03T15:28:44;68.00;;;46.50;;
1404;SDS011;697;51.114;6.542;2023-03-03T15:31:21;69.20;;;44.80;;
1404;SDS011;697;51.114;6.542;2023-03-03T15:34:00;64.27;;;45.27;;
1404;SDS011;697;51.114;6.542;2023-03-03T15:36:33;65.10;;;45.27;;
1404;SDS011;697;51.114;6.542;2023-03-03T15:39:12;61.20;;;43.20;;
1404;SDS011;697;51.114;6.542;2023-03-03T15:41:47;58.80;;;41.87;;
1404;SDS011;697;51.114;6.542;2023-03-03T15:44:25;65.03;;;42.50;;
1404;SDS011;697;51.114;6.542;2023-03-03T15:47:02;61.87;;;43.67;;
1404;SDS011;697;51.114;6.542;2023-03-03T15:49:51;59.17;;;43.30;;
1404;SDS011;697;51.114;6.542;2023-03-03T15:52:32;69.90;;;43.90;;